sensor_id;sensor_type;location;lat;lon;timestamp;pressure;altitude;pressure_sealevel;temperature;humidity
5814;BME280;2933;52.302;8.134;2023-02-14T00:02:35;102442.94;;;0.41;100.00
5814;BME280;2933;52.302;8.134;2023-02-14T00:07:38;102478.25;;;0.54;100.00
5814;BME280;2933;52.302;8.134;2023-02-14T00:12:41;102455.63;;;0.28;100.00
5814;BME280;2933;52.302;8.134;2023-02-14T00:17:42;102477.25;;;0.41;100.00
5814;BME280;2933;52.302;8.134;2023-02-14T00:22:46;102484.03;;;0.36;100.00
5814;BME280;2933;52.302;8.134;2023-02-14T00:27:47;102447.72;;;0.13;100.00
5814;BME280;2933;52.302;8.134;2023-02-14T00:32:49;102462.22;;;0.11;100.00
5814;BME280;2933;52.302;8.134;2023-02-14T00:37:52;102462.34;;;0.19;100.00
5814;BME280;2933;52.302;8.134;2023-02-14T00:42:54;102449.56;;;0.25;100.00
5814;BME280;2933;52.302;8.134;2023-02-14T00:47:56;102443.31;;;0.06;100.00
5814;BME280;2933;52.302;8.134;2023-02-14T00:52:58;102462.41;;;0.22;100.00
5814;BME280;2933;52.302;8.134;2023-02-14T00:58:00;102482.94;;;0.20;100.00
5814;BME280;2933;52.302;8.134;2023-02-14T01:03:02;102475.25;;;0.23;100.00
5814;BME280;2933;52.302;8.134;2023-02-14T01:08:06;102454.31;;;-0.05;100.00
5814;BME280;2933;52.302;8.134;2023-02-14T01:13:07;102469.25;;;0.21;100.00
5814;BME280;2933;52.302;8.134;2023-02-14T01:18:09;102426.72;;;-0.15;100.00
5814;BME280;2933;52.302;8.134;2023-02-14T01:23:12;102478.00;;;0.36;100.00
5814;BME280;2933;52.302;8.134;2023-02-14T01:28:14;102477.84;;;0.23;100.00
5814;BME280;2933;52.302;8.134;2023-02-14T01:33:16;102478.19;;;0.50;100.00
5814;BME280;2933;52.302;8.134;2023-02-14T01:38:19;102491.03;;;0.46;100.00
5814;BME280;2933;52.302;8.134;2023-02-14T01:43:21;102493.56;;;0.45;100.00
5814;BME280;2933;52.302;8.134;2023-02-14T01:48:23;102486.44;;;0.24;100.00
5814;BME280;2933;52.302;8.134;2023-02-14T01:53:27;102469.81;;;0.00;100.00
5814;BME280;2933;52.302;8.134;2023-02-14T01:58:31;102477.47;;;-0.02;100.00
5814;BME280;2933;52.302;8.134;2023-02-14T02:03:38;102475.72;;;-0.04;100.00
5814;BME280;2933;52.302;8.134;2023-02-14T02:08:49;102479.00;;;-0.13;100.00
5814;BME280;2933;52.302;8.134;2023-02-14T02:13:52;102474.06;;;-0.01;100.00
5814;BME280;2933;52.302;8.134;2023-02-14T02:19:06;102467.09;;;-0.09;100.00
5814;BME280;2933;52.302;8.134;2023-02-14T02:24:39;102468.06;;;-0.01;100.00
5814;BME280;2933;52.302;8.134;2023-02-14T02:30:03;102474.56;;;-0.25;100.00
5814;BME280;2933;52.302;8.134;2023-02-14T02:35:32;102459.91;;;-0.30;100.00
5814;BME280;2933;52.302;8.134;2023-02-14T02:40:45;102445.13;;;-0.45;100.00
5814;BME280;2933;52.302;8.134;2023-02-14T02:45:56;102436.59;;;-0.43;100.00
5814;BME280;2933;52.302;8.134;2023-02-14T02:51:22;102426.19;;;-0.52;100.00
5814;BME280;2933;52.302;8.134;2023-02-14T02:56:46;102439.91;;;-0.49;100.00
5814;BME280;2933;52.302;8.134;2023-02-14T03:01:55;102402.72;;;-0.74;100.00
5814;BME280;2933;52.302;8.134;2023-02-14T03:06:59;102389.75;;;-0.82;100.00
5814;BME280;2933;52.302;8.134;2023-02-14T03:12:39;102426.94;;;-0.56;100.00
5814;BME280;2933;52.302;8.134;2023-02-14T03:17:55;102387.19;;;-0.80;100.00
5814;BME280;2933;52.302;8.134;2023-02-14T03:23:04;102386.50;;;-0.70;100.00
5814;BME280;2933;52.302;8.134;2023-02-14T03:28:13;102392.44;;;-0.75;100.00
5814;BME280;2933;52.302;8.134;2023-02-14T03:33:19;102409.88;;;-0.54;100.00
5814;BME280;2933;52.302;8.134;2023-02-14T03:38:29;102353.19;;;-0.68;100.00
5814;BME280;2933;52.302;8.134;2023-02-14T03:43:34;102380.78;;;-0.55;100.00
5814;BME280;2933;52.302;8.134;2023-02-14T03:48:38;102399.84;;;-0.39;100.00
5814;BME280;2933;52.302;8.134;2023-02-14T03:53:45;102394.41;;;-0.59;100.00
5814;BME280;2933;52.302;8.134;2023-02-14T03:58:50;102393.53;;;-0.59;100.00
5814;BME280;2933;52.302;8.134;2023-02-14T04:03:58;102332.13;;;-1.01;100.00
5814;BME280;2933;52.302;8.134;2023-02-14T04:09:03;102392.31;;;-0.83;100.00
5814;BME280;2933;52.302;8.134;2023-02-14T04:14:04;102386.94;;;-0.95;100.00
5814;BME280;2933;52.302;8.134;2023-02-14T04:19:07;102324.97;;;-1.20;100.00
5814;BME280;2933;52.302;8.134;2023-02-14T04:24:26;102379.09;;;-1.03;100.00
5814;BME280;2933;52.302;8.134;2023-02-14T04:29:28;102379.06;;;-1.06;100.00
5814;BME280;2933;52.302;8.134;2023-02-14T04:34:29;102376.63;;;-0.97;100.00
5814;BME280;2933;52.302;8.134;2023-02-14T04:39:33;102361.91;;;-1.09;100.00
5814;BME280;2933;52.302;8.134;2023-02-14T04:44:35;102343.75;;;-1.21;100.00
5814;BME280;2933;52.302;8.134;2023-02-14T04:49:37;102386.91;;;-0.97;100.00
5814;BME280;2933;52.302;8.134;2023-02-14T04:54:40;102375.91;;;-0.91;100.00
5814;BME280;2933;52.302;8.134;2023-02-14T04:59:44;102366.97;;;-1.12;100.00
5814;BME280;2933;52.302;8.134;2023-02-14T05:04:45;102351.78;;;-1.01;100.00
5814;BME280;2933;52.302;8.134;2023-02-14T05:09:49;102332.44;;;-1.33;100.00
5814;BME280;2933;52.302;8.134;2023-02-14T05:14:52;102358.53;;;-1.06;100.00
5814;BME280;2933;52.302;8.134;2023-02-14T05:19:55;102363.63;;;-1.09;100.00
5814;BME280;2933;52.302;8.134;2023-02-14T05:24:58;102327.13;;;-1.42;100.00
5814;BME280;2933;52.302;8.134;2023-02-14T05:29:59;102329.41;;;-1.57;100.00
5814;BME280;2933;52.302;8.134;2023-02-14T05:35:01;102358.78;;;-1.40;100.00
5814;BME280;2933;52.302;8.134;2023-02-14T05:40:08;102314.88;;;-1.57;100.00
5814;BME280;2933;52.302;8.134;2023-02-14T05:45:12;102368.31;;;-1.33;100.00
5814;BME280;2933;52.302;8.134;2023-02-14T05:50:15;102371.97;;;-1.20;100.00
5814;BME280;2933;52.302;8.134;2023-02-14T05:55:18;102380.69;;;-1.10;100.00
5814;BME280;2933;52.302;8.134;2023-02-14T06:00:21;102384.91;;;-1.14;100.00
5814;BME280;2933;52.302;8.134;2023-02-14T06:05:22;102387.69;;;-1.03;100.00
5814;BME280;2933;52.302;8.134;2023-02-14T06:10:25;102386.78;;;-1.03;100.00
5814;BME280;2933;52.302;8.134;2023-02-14T06:15:27;102395.56;;;-0.92;100.00
5814;BME280;2933;52.302;8.134;2023-02-14T06:20:29;102396.44;;;-0.91;100.00
5814;BME280;2933;52.302;8.134;2023-02-14T06:25:32;102395.94;;;-1.19;100.00
5814;BME280;2933;52.302;8.134;2023-02-14T06:30:34;102389.06;;;-1.20;100.00
5814;BME280;2933;52.302;8.134;2023-02-14T06:35:35;102375.06;;;-1.38;100.00
5814;BME280;2933;52.302;8.134;2023-02-14T06:40:38;102384.56;;;-1.32;100.00
5814;BME280;2933;52.302;8.134;2023-02-14T06:45:40;102391.31;;;-1.36;100.00
5814;BME280;2933;52.302;8.134;2023-02-14T06:50:42;102388.13;;;-1.25;100.00
5814;BME280;2933;52.302;8.134;2023-02-14T06:55:45;102399.25;;;-1.25;100.00
5814;BME280;2933;52.302;8.134;2023-02-14T07:00:48;102399.38;;;-1.17;100.00
5814;BME280;2933;52.302;8.134;2023-02-14T07:05:49;102391.78;;;-1.12;100.00
5814;BME280;2933;52.302;8.134;2023-02-14T07:10:55;102372.75;;;-1.25;100.00
5814;BME280;2933;52.302;8.134;2023-02-14T07:15:57;102376.38;;;-1.14;100.00
5814;BME280;2933;52.302;8.134;2023-02-14T07:20:58;102391.25;;;-0.94;100.00
5814;BME280;2933;52.302;8.134;2023-02-14T07:26:02;102393.56;;;-0.58;100.00
5814;BME280;2933;52.302;8.134;2023-02-14T07:31:04;102396.34;;;-0.44;100.00
5814;BME280;2933;52.302;8.134;2023-02-14T07:36:07;102396.25;;;-0.50;100.00
5814;BME280;2933;52.302;8.134;2023-02-14T07:41:10;102397.22;;;-0.43;100.00
5814;BME280;2933;52.302;8.134;2023-02-14T07:46:11;102349.72;;;-0.70;100.00
5814;BME280;2933;52.302;8.134;2023-02-14T07:51:17;102401.19;;;-0.07;100.00
5814;BME280;2933;52.302;8.134;2023-02-14T07:56:29;102401.94;;;0.55;100.00
5814;BME280;2933;52.302;8.134;2023-02-14T08:01:46;102380.72;;;0.71;100.00
5814;BME280;2933;52.302;8.134;2023-02-14T08:07:04;102393.84;;;1.01;100.00
5814;BME280;2933;52.302;8.134;2023-02-14T08:12:28;102393.19;;;1.20;100.00
5814;BME280;2933;52.302;8.134;2023-02-14T08:17:47;102402.75;;;1.32;100.00
5814;BME280;2933;52.302;8.134;2023-02-14T08:22:59;102380.31;;;1.20;100.00
5814;BME280;2933;52.302;8.134;2023-02-14T08:28:35;102388.78;;;1.07;100.00
5814;BME280;2933;52.302;8.134;2023-02-14T08:33:47;102348.38;;;0.98;100.00
5814;BME280;2933;52.302;8.134;2023-02-14T08:38:55;102383.81;;;1.28;100.00
5814;BME280;2933;52.302;8.134;2023-02-14T08:43:58;102394.28;;;1.49;100.00
5814;BME280;2933;52.302;8.134;2023-02-14T08:48:59;102389.25;;;1.66;100.00
5814;BME280;2933;52.302;8.134;2023-02-14T08:54:01;102385.97;;;1.88;100.00
5814;BME280;2933;52.302;8.134;2023-02-14T08:59:04;102379.16;;;1.97;100.00
5814;BME280;2933;52.302;8.134;2023-02-14T09:04:05;102379.09;;;1.92;100.00
5814;BME280;2933;52.302;8.134;2023-02-14T09:09:07;102392.09;;;2.10;100.00
5814;BME280;2933;52.302;8.134;2023-02-14T09:14:10;102389.66;;;2.46;100.00
5814;BME280;2933;52.302;8.134;2023-02-14T09:19:11;102391.44;;;2.63;100.00
5814;BME280;2933;52.302;8.134;2023-02-14T09:24:13;102383.72;;;2.72;100.00
5814;BME280;2933;52.302;8.134;2023-02-14T09:29:16;102370.78;;;2.66;100.00
5814;BME280;2933;52.302;8.134;2023-02-14T09:34:18;102384.63;;;2.86;100.00
5814;BME280;2933;52.302;8.134;2023-02-14T09:39:19;102386.38;;;3.06;100.00
5814;BME280;2933;52.302;8.134;2023-02-14T09:44:27;102381.22;;;3.38;100.00
5814;BME280;2933;52.302;8.134;2023-02-14T09:49:34;102382.06;;;3.61;100.00
5814;BME280;2933;52.302;8.134;2023-02-14T09:54:36;102377.72;;;3.84;100.00
5814;BME280;2933;52.302;8.134;2023-02-14T09:59:44;102375.06;;;4.06;100.00
5814;BME280;2933;52.302;8.134;2023-02-14T10:04:57;102375.84;;;4.24;100.00
5814;BME280;2933;52.302;8.134;2023-02-14T10:10:09;102368.81;;;4.52;100.00
5814;BME280;2933;52.302;8.134;2023-02-14T10:15:18;102371.28;;;4.75;100.00
5814;BME280;2933;52.302;8.134;2023-02-14T10:20:23;102360.88;;;4.78;100.00
5814;BME280;2933;52.302;8.134;2023-02-14T10:25:28;102368.53;;;4.98;100.00
5814;BME280;2933;52.302;8.134;2023-02-14T10:30:38;102364.09;;;5.16;100.00
5814;BME280;2933;52.302;8.134;2023-02-14T10:35:43;102366.44;;;5.41;100.00
5814;BME280;2933;52.302;8.134;2023-02-14T10:41:06;102353.41;;;5.50;100.00
5814;BME280;2933;52.302;8.134;2023-02-14T10:46:16;102350.69;;;5.64;100.00
5814;BME280;2933;52.302;8.134;2023-02-14T10:51:28;102341.84;;;5.80;100.00
5814;BME280;2933;52.302;8.134;2023-02-14T10:56:33;102338.22;;;5.95;100.00
5814;BME280;2933;52.302;8.134;2023-02-14T11:01:38;102318.19;;;6.13;100.00
5814;BME280;2933;52.302;8.134;2023-02-14T11:06:39;102316.03;;;6.43;100.00
5814;BME280;2933;52.302;8.134;2023-02-14T11:11:44;102311.66;;;6.48;100.00
5814;BME280;2933;52.302;8.134;2023-02-14T11:16:48;102307.06;;;6.66;100.00
5814;BME280;2933;52.302;8.134;2023-02-14T11:21:53;102308.66;;;6.74;100.00
5814;BME280;2933;52.302;8.134;2023-02-14T11:26:57;102298.91;;;6.87;100.00
5814;BME280;2933;52.302;8.134;2023-02-14T11:32:07;102288.81;;;7.22;100.00
5814;BME280;2933;52.302;8.134;2023-02-14T11:37:23;102292.63;;;7.49;100.00
5814;BME280;2933;52.302;8.134;2023-02-14T11:42:40;102285.44;;;7.64;100.00
5814;BME280;2933;52.302;8.134;2023-02-14T11:47:44;102278.72;;;7.94;100.00
5814;BME280;2933;52.302;8.134;2023-02-14T11:52:49;102266.91;;;8.20;100.00
5814;BME280;2933;52.302;8.134;2023-02-14T11:57:52;102266.59;;;8.34;100.00
5814;BME280;2933;52.302;8.134;2023-02-14T12:02:57;102248.19;;;8.41;100.00
5814;BME280;2933;52.302;8.134;2023-02-14T12:08:03;102243.44;;;8.61;100.00
5814;BME280;2933;52.302;8.134;2023-02-14T12:13:21;102241.91;;;8.50;100.00
5814;BME280;2933;52.302;8.134;2023-02-14T12:18:47;102238.75;;;8.73;100.00
5814;BME280;2933;52.302;8.134;2023-02-14T12:23:58;102221.09;;;8.86;100.00
5814;BME280;2933;52.302;8.134;2023-02-14T12:29:08;102214.56;;;9.03;99.12
5814;BME280;2933;52.302;8.134;2023-02-14T12:34:13;102211.47;;;9.21;98.60
5814;BME280;2933;52.302;8.134;2023-02-14T12:39:21;102211.63;;;9.15;97.19
5814;BME280;2933;52.302;8.134;2023-02-14T12:44:34;102214.50;;;9.36;99.03
5814;BME280;2933;52.302;8.134;2023-02-14T12:50:14;102207.94;;;9.54;95.98
5814;BME280;2933;52.302;8.134;2023-02-14T12:55:35;102196.38;;;9.63;94.92
5814;BME280;2933;52.302;8.134;2023-02-14T13:00:46;102184.72;;;9.75;93.03
5814;BME280;2933;52.302;8.134;2023-02-14T13:05:59;102185.28;;;9.84;92.66
5814;BME280;2933;52.302;8.134;2023-02-14T13:11:07;102171.47;;;9.81;91.22
5814;BME280;2933;52.302;8.134;2023-02-14T13:16:18;102161.75;;;9.86;92.48
5814;BME280;2933;52.302;8.134;2023-02-14T13:21:28;102158.97;;;9.91;92.04
5814;BME280;2933;52.302;8.134;2023-02-14T13:26:35;102154.38;;;9.99;90.27
5814;BME280;2933;52.302;8.134;2023-02-14T13:31:39;102148.84;;;10.10;92.78
5814;BME280;2933;52.302;8.134;2023-02-14T13:36:43;102145.06;;;10.18;90.26
5814;BME280;2933;52.302;8.134;2023-02-14T13:41:45;102146.59;;;10.24;91.60
5814;BME280;2933;52.302;8.134;2023-02-14T13:46:50;102138.94;;;10.19;88.56
5814;BME280;2933;52.302;8.134;2023-02-14T13:51:55;102140.09;;;10.11;90.50
5814;BME280;2933;52.302;8.134;2023-02-14T13:56:58;102135.78;;;10.10;91.59
5814;BME280;2933;52.302;8.134;2023-02-14T14:07:42;102131.38;;;10.39;91.63
5814;BME280;2933;52.302;8.134;2023-02-14T14:12:43;102135.06;;;10.31;89.51
5814;BME280;2933;52.302;8.134;2023-02-14T14:17:48;102122.75;;;10.35;90.11
5814;BME280;2933;52.302;8.134;2023-02-14T14:23:30;102122.25;;;10.24;91.90
5814;BME280;2933;52.302;8.134;2023-02-14T14:28:32;102110.22;;;10.19;91.66
5814;BME280;2933;52.302;8.134;2023-02-14T14:33:33;102085.47;;;10.05;91.06
5814;BME280;2933;52.302;8.134;2023-02-14T14:38:47;102110.28;;;10.16;92.09
5814;BME280;2933;52.302;8.134;2023-02-14T14:43:49;102104.44;;;10.10;92.00
5814;BME280;2933;52.302;8.134;2023-02-14T14:48:53;102103.75;;;10.03;92.04
5814;BME280;2933;52.302;8.134;2023-02-14T14:53:59;102096.94;;;9.99;93.53
5814;BME280;2933;52.302;8.134;2023-02-14T14:59:16;102092.69;;;9.96;92.87
5814;BME280;2933;52.302;8.134;2023-02-14T15:04:24;102089.47;;;9.88;92.11
5814;BME280;2933;52.302;8.134;2023-02-14T15:09:31;102085.31;;;9.82;91.30
5814;BME280;2933;52.302;8.134;2023-02-14T15:14:34;102080.66;;;9.92;91.90
5814;BME280;2933;52.302;8.134;2023-02-14T15:19:40;102075.63;;;9.86;93.05
5814;BME280;2933;52.302;8.134;2023-02-14T15:24:45;102071.56;;;9.76;92.66
5814;BME280;2933;52.302;8.134;2023-02-14T15:29:54;102075.25;;;9.70;92.88
5814;BME280;2933;52.302;8.134;2023-02-14T15:34:57;102066.88;;;9.60;93.66
5814;BME280;2933;52.302;8.134;2023-02-14T15:40:01;102062.91;;;9.47;94.75
5814;BME280;2933;52.302;8.134;2023-02-14T15:45:14;102062.34;;;9.37;96.49
5814;BME280;2933;52.302;8.134;2023-02-14T15:50:17;102061.94;;;9.21;96.96
5814;BME280;2933;52.302;8.134;2023-02-14T15:55:22;102066.56;;;9.13;98.29
5814;BME280;2933;52.302;8.134;2023-02-14T16:00:25;102062.59;;;8.99;98.97
5814;BME280;2933;52.302;8.134;2023-02-14T16:05:27;102059.31;;;8.93;98.72
5814;BME280;2933;52.302;8.134;2023-02-14T16:10:32;102053.41;;;8.86;99.04
5814;BME280;2933;52.302;8.134;2023-02-14T16:15:34;102053.94;;;8.67;100.00
5814;BME280;2933;52.302;8.134;2023-02-14T16:20:39;102045.97;;;8.39;100.00
5814;BME280;2933;52.302;8.134;2023-02-14T16:25:42;102054.72;;;8.03;100.00
5814;BME280;2933;52.302;8.134;2023-02-14T16:30:44;102051.34;;;7.64;100.00
5814;BME280;2933;52.302;8.134;2023-02-14T16:35:48;102053.72;;;7.35;100.00
5814;BME280;2933;52.302;8.134;2023-02-14T16:40:52;102048.34;;;7.02;100.00
5814;BME280;2933;52.302;8.134;2023-02-14T16:45:54;102048.03;;;6.75;100.00
5814;BME280;2933;52.302;8.134;2023-02-14T16:50:56;102048.31;;;6.61;100.00
5814;BME280;2933;52.302;8.134;2023-02-14T16:55:59;102046.78;;;6.50;100.00
5814;BME280;2933;52.302;8.134;2023-02-14T17:01:01;102051.34;;;6.37;100.00
5814;BME280;2933;52.302;8.134;2023-02-14T17:06:03;102046.47;;;6.20;100.00
5814;BME280;2933;52.302;8.134;2023-02-14T17:11:08;102043.34;;;5.97;100.00
5814;BME280;2933;52.302;8.134;2023-02-14T17:16:10;102041.03;;;5.79;100.00
5814;BME280;2933;52.302;8.134;2023-02-14T17:21:16;102046.41;;;5.66;100.00
5814;BME280;2933;52.302;8.134;2023-02-14T17:26:24;102032.97;;;5.41;100.00
5814;BME280;2933;52.302;8.134;2023-02-14T17:31:40;102045.16;;;5.36;100.00
5814;BME280;2933;52.302;8.134;2023-02-14T17:36:43;102038.56;;;5.10;100.00
5814;BME280;2933;52.302;8.134;2023-02-14T17:41:46;102039.66;;;4.94;100.00
5814;BME280;2933;52.302;8.134;2023-02-14T17:46:48;102040.75;;;4.74;100.00
5814;BME280;2933;52.302;8.134;2023-02-14T17:51:49;102028.03;;;4.54;100.00
5814;BME280;2933;52.302;8.134;2023-02-14T17:56:53;102034.97;;;4.47;100.00
5814;BME280;2933;52.302;8.134;2023-02-14T18:01:54;102036.88;;;4.33;100.00
5814;BME280;2933;52.302;8.134;2023-02-14T18:06:56;102038.69;;;4.23;100.00
5814;BME280;2933;52.302;8.134;2023-02-14T18:12:00;102003.66;;;3.88;100.00
5814;BME280;2933;52.302;8.134;2023-02-14T18:17:10;101999.53;;;3.67;100.00
5814;BME280;2933;52.302;8.134;2023-02-14T18:22:12;102015.00;;;3.70;100.00
5814;BME280;2933;52.302;8.134;2023-02-14T18:27:16;102018.53;;;3.60;100.00
5814;BME280;2933;52.302;8.134;2023-02-14T18:32:19;101987.75;;;3.27;100.00
5814;BME280;2933;52.302;8.134;2023-02-14T18:37:21;102010.91;;;3.36;100.00
5814;BME280;2933;52.302;8.134;2023-02-14T18:42:24;101980.09;;;3.09;100.00
5814;BME280;2933;52.302;8.134;2023-02-14T18:47:32;101995.59;;;3.10;100.00
5814;BME280;2933;52.302;8.134;2023-02-14T18:52:36;101954.47;;;2.76;100.00
5814;BME280;2933;52.302;8.134;2023-02-14T18:57:40;101999.97;;;2.89;100.00
5814;BME280;2933;52.302;8.134;2023-02-14T19:02:41;101989.69;;;2.83;100.00
5814;BME280;2933;52.302;8.134;2023-02-14T19:07:43;101965.72;;;2.61;100.00
5814;BME280;2933;52.302;8.134;2023-02-14T19:12:46;101994.03;;;2.75;100.00
5814;BME280;2933;52.302;8.134;2023-02-14T19:17:48;102002.72;;;2.49;100.00
5814;BME280;2933;52.302;8.134;2023-02-14T19:22:49;101992.38;;;2.52;100.00
5814;BME280;2933;52.302;8.134;2023-02-14T19:27:52;101995.84;;;2.37;100.00
5814;BME280;2933;52.302;8.134;2023-02-14T19:32:54;101989.88;;;2.14;100.00
5814;BME280;2933;52.302;8.134;2023-02-14T19:37:56;101996.75;;;2.15;100.00
5814;BME280;2933;52.302;8.134;2023-02-14T19:42:59;101996.78;;;2.04;100.00
5814;BME280;2933;52.302;8.134;2023-02-14T19:48:01;101990.78;;;1.96;100.00
5814;BME280;2933;52.302;8.134;2023-02-14T19:53:02;101966.72;;;1.93;100.00
5814;BME280;2933;52.302;8.134;2023-02-14T19:58:05;101990.78;;;1.89;100.00
5814;BME280;2933;52.302;8.134;2023-02-14T20:03:07;101955.56;;;1.51;100.00
5814;BME280;2933;52.302;8.134;2023-02-14T20:08:09;101969.31;;;1.61;100.00
5814;BME280;2933;52.302;8.134;2023-02-14T20:13:11;101967.59;;;1.63;100.00
5814;BME280;2933;52.302;8.134;2023-02-14T20:18:13;101969.31;;;1.49;100.00
5814;BME280;2933;52.302;8.134;2023-02-14T20:23:14;101953.84;;;1.39;100.00
5814;BME280;2933;52.302;8.134;2023-02-14T20:28:19;101956.44;;;1.33;100.00
5814;BME280;2933;52.302;8.134;2023-02-14T20:33:28;101946.94;;;1.23;100.00
5814;BME280;2933;52.302;8.134;2023-02-14T20:38:30;101945.25;;;1.23;100.00
5814;BME280;2933;52.302;8.134;2023-02-14T20:43:34;101934.06;;;1.00;100.00
5814;BME280;2933;52.302;8.134;2023-02-14T20:48:36;101946.03;;;0.91;100.00
5814;BME280;2933;52.302;8.134;2023-02-14T20:54:02;101939.16;;;0.90;100.00
5814;BME280;2933;52.302;8.134;2023-02-14T20:59:05;101937.47;;;0.91;100.00
5814;BME280;2933;52.302;8.134;2023-02-14T21:04:07;101930.56;;;0.76;100.00
5814;BME280;2933;52.302;8.134;2023-02-14T21:09:18;101930.53;;;0.74;100.00
5814;BME280;2933;52.302;8.134;2023-02-14T21:14:29;101868.78;;;0.57;100.00
5814;BME280;2933;52.302;8.134;2023-02-14T21:19:30;101887.63;;;0.59;100.00
5814;BME280;2933;52.302;8.134;2023-02-14T21:24:32;101925.38;;;0.67;100.00
5814;BME280;2933;52.302;8.134;2023-02-14T21:29:35;101900.50;;;0.56;100.00
5814;BME280;2933;52.302;8.134;2023-02-14T21:34:40;101917.59;;;0.48;100.00
5814;BME280;2933;52.302;8.134;2023-02-14T21:39:41;101883.25;;;0.32;100.00
5814;BME280;2933;52.302;8.134;2023-02-14T21:44:46;101915.06;;;0.53;100.00
5814;BME280;2933;52.302;8.134;2023-02-14T21:50:01;101899.63;;;0.54;100.00
5814;BME280;2933;52.302;8.134;2023-02-14T21:55:20;101913.25;;;0.30;100.00
5814;BME280;2933;52.302;8.134;2023-02-14T22:00:23;101908.09;;;0.33;100.00
5814;BME280;2933;52.302;8.134;2023-02-14T22:05:25;101906.31;;;0.15;100.00
5814;BME280;2933;52.302;8.134;2023-02-14T22:10:27;101914.03;;;0.15;100.00
5814;BME280;2933;52.302;8.134;2023-02-14T22:15:30;101901.13;;;0.03;100.00
5814;BME280;2933;52.302;8.134;2023-02-14T22:20:31;101877.88;;;-0.14;100.00
5814;BME280;2933;52.302;8.134;2023-02-14T22:25:33;101906.22;;;-0.01;100.00
5814;BME280;2933;52.302;8.134;2023-02-14T22:30:36;101864.97;;;-0.28;100.00
5814;BME280;2933;52.302;8.134;2023-02-14T22:35:38;101902.00;;;0.08;100.00
5814;BME280;2933;52.302;8.134;2023-02-14T22:40:42;101853.00;;;-0.22;100.00
5814;BME280;2933;52.302;8.134;2023-02-14T22:46:01;101896.00;;;0.13;100.00
5814;BME280;2933;52.302;8.134;2023-02-14T22:51:10;101842.81;;;-0.11;100.00
5814;BME280;2933;52.302;8.134;2023-02-14T22:56:14;101901.06;;;-0.02;100.00
5814;BME280;2933;52.302;8.134;2023-02-14T23:01:19;101887.22;;;-0.24;100.00
5814;BME280;2933;52.302;8.134;2023-02-14T23:06:22;101882.94;;;-0.28;100.00
5814;BME280;2933;52.302;8.134;2023-02-14T23:11:26;101892.28;;;-0.35;100.00
5814;BME280;2933;52.302;8.134;2023-02-14T23:16:29;101890.56;;;-0.41;100.00
5814;BME280;2933;52.302;8.134;2023-02-14T23:21:49;101888.94;;;-0.26;100.00
5814;BME280;2933;52.302;8.134;2023-02-14T23:26:56;101859.72;;;-0.44;100.00
5814;BME280;2933;52.302;8.134;2023-02-14T23:32:02;101856.16;;;-0.60;100.00
5814;BME280;2933;52.302;8.134;2023-02-14T23:37:04;101879.34;;;-0.49;100.00
5814;BME280;2933;52.302;8.134;2023-02-14T23:42:08;101888.84;;;-0.40;100.00
5814;BME280;2933;52.302;8.134;2023-02-14T23:47:12;101880.28;;;-0.41;100.00
5814;BME280;2933;52.302;8.134;2023-02-14T23:52:14;101885.41;;;-0.41;100.00
5814;BME280;2933;52.302;8.134;2023-02-14T23:57:15;101877.59;;;-0.58;100.00
